sensor_id;sensor_type;location;lat;lon;timestamp;pressure;altitude;pressure_sealevel;temperature
11424;BMP180;5768;51.476;7.210;2022-10-15T00:02:11;99453.00;;;17.70
11424;BMP180;5768;51.476;7.210;2022-10-15T00:07:13;99446.00;;;17.60
11424;BMP180;5768;51.476;7.210;2022-10-15T00:12:17;99438.00;;;17.60
11424;BMP180;5768;51.476;7.210;2022-10-15T00:17:19;99432.00;;;17.50
11424;BMP180;5768;51.476;7.210;2022-10-15T00:22:21;99435.00;;;17.40
11424;BMP180;5768;51.476;7.210;2022-10-15T00:27:24;99435.00;;;17.30
11424;BMP180;5768;51.476;7.210;2022-10-15T00:32:27;99438.00;;;17.20
11424;BMP180;5768;51.476;7.210;2022-10-15T00:37:29;99424.00;;;17.20
11424;BMP180;5768;51.476;7.210;2022-10-15T00:42:33;99427.00;;;17.10
11424;BMP180;5768;51.476;7.210;2022-10-15T00:47:39;99420.00;;;17.00
11424;BMP180;5768;51.476;7.210;2022-10-15T00:52:50;99426.00;;;17.10
11424;BMP180;5768;51.476;7.210;2022-10-15T00:58:00;99423.00;;;17.00
11424;BMP180;5768;51.476;7.210;2022-10-15T01:03:03;99432.00;;;17.00
11424;BMP180;5768;51.476;7.210;2022-10-15T01:08:06;99434.00;;;17.10
11424;BMP180;5768;51.476;7.210;2022-10-15T01:13:20;99423.00;;;17.10
11424;BMP180;5768;51.476;7.210;2022-10-15T01:18:31;99416.00;;;17.00
11424;BMP180;5768;51.476;7.210;2022-10-15T01:24:31;99416.00;;;17.00
11424;BMP180;5768;51.476;7.210;2022-10-15T01:30:18;99419.00;;;17.00
11424;BMP180;5768;51.476;7.210;2022-10-15T01:35:32;99419.00;;;17.20
11424;BMP180;5768;51.476;7.210;2022-10-15T01:40:49;99425.00;;;17.30
11424;BMP180;5768;51.476;7.210;2022-10-15T01:45:57;99428.00;;;17.40
11424;BMP180;5768;51.476;7.210;2022-10-15T01:51:04;99447.00;;;17.50
11424;BMP180;5768;51.476;7.210;2022-10-15T01:56:12;99441.00;;;17.50
11424;BMP180;5768;51.476;7.210;2022-10-15T02:01:20;99435.00;;;17.50
11424;BMP180;5768;51.476;7.210;2022-10-15T02:06:26;99423.00;;;17.50
11424;BMP180;5768;51.476;7.210;2022-10-15T02:11:37;99429.00;;;17.40
11424;BMP180;5768;51.476;7.210;2022-10-15T02:16:51;99423.00;;;17.40
11424;BMP180;5768;51.476;7.210;2022-10-15T02:22:02;99415.00;;;17.50
11424;BMP180;5768;51.476;7.210;2022-10-15T02:27:12;99415.00;;;17.60
11424;BMP180;5768;51.476;7.210;2022-10-15T02:32:21;99411.00;;;17.60
11424;BMP180;5768;51.476;7.210;2022-10-15T02:37:27;99411.00;;;17.60
11424;BMP180;5768;51.476;7.210;2022-10-15T02:42:30;99406.00;;;17.60
11424;BMP180;5768;51.476;7.210;2022-10-15T02:47:34;99409.00;;;17.60
11424;BMP180;5768;51.476;7.210;2022-10-15T02:52:37;99416.00;;;17.60
11424;BMP180;5768;51.476;7.210;2022-10-15T02:57:39;99422.00;;;17.50
11424;BMP180;5768;51.476;7.210;2022-10-15T03:02:43;99419.00;;;17.50
11424;BMP180;5768;51.476;7.210;2022-10-15T03:07:45;99424.00;;;17.40
11424;BMP180;5768;51.476;7.210;2022-10-15T03:12:47;99407.00;;;17.40
11424;BMP180;5768;51.476;7.210;2022-10-15T03:17:51;99407.00;;;17.40
11424;BMP180;5768;51.476;7.210;2022-10-15T03:22:53;99410.00;;;17.30
11424;BMP180;5768;51.476;7.210;2022-10-15T03:27:55;99414.00;;;17.10
11424;BMP180;5768;51.476;7.210;2022-10-15T03:32:59;99401.00;;;16.90
11424;BMP180;5768;51.476;7.210;2022-10-15T03:38:02;99396.00;;;16.70
11424;BMP180;5768;51.476;7.210;2022-10-15T03:43:04;99384.00;;;16.60
11424;BMP180;5768;51.476;7.210;2022-10-15T03:48:08;99379.00;;;16.60
11424;BMP180;5768;51.476;7.210;2022-10-15T03:53:10;99375.00;;;16.50
11424;BMP180;5768;51.476;7.210;2022-10-15T03:58:12;99377.00;;;16.40
11424;BMP180;5768;51.476;7.210;2022-10-15T04:03:16;99367.00;;;16.40
11424;BMP180;5768;51.476;7.210;2022-10-15T04:08:18;99374.00;;;16.30
11424;BMP180;5768;51.476;7.210;2022-10-15T04:13:20;99380.00;;;16.30
11424;BMP180;5768;51.476;7.210;2022-10-15T04:18:24;99380.00;;;16.50
11424;BMP180;5768;51.476;7.210;2022-10-15T04:23:26;99391.00;;;16.60
11424;BMP180;5768;51.476;7.210;2022-10-15T04:28:29;99399.00;;;16.70
11424;BMP180;5768;51.476;7.210;2022-10-15T04:33:32;99384.00;;;16.80
11424;BMP180;5768;51.476;7.210;2022-10-15T04:38:34;99395.00;;;16.80
11424;BMP180;5768;51.476;7.210;2022-10-15T04:43:37;99399.00;;;16.90
11424;BMP180;5768;51.476;7.210;2022-10-15T04:48:41;99412.00;;;16.90
11424;BMP180;5768;51.476;7.210;2022-10-15T04:53:46;99407.00;;;17.00
11424;BMP180;5768;51.476;7.210;2022-10-15T04:58:49;99399.00;;;17.00
11424;BMP180;5768;51.476;7.210;2022-10-15T05:03:52;99400.00;;;17.10
11424;BMP180;5768;51.476;7.210;2022-10-15T05:08:55;99408.00;;;17.10
11424;BMP180;5768;51.476;7.210;2022-10-15T05:13:57;99390.00;;;17.10
11424;BMP180;5768;51.476;7.210;2022-10-15T05:19:04;99393.00;;;17.10
11424;BMP180;5768;51.476;7.210;2022-10-15T05:24:08;99384.00;;;17.10
11424;BMP180;5768;51.476;7.210;2022-10-15T05:29:10;99386.00;;;17.20
11424;BMP180;5768;51.476;7.210;2022-10-15T05:34:13;99383.00;;;17.10
11424;BMP180;5768;51.476;7.210;2022-10-15T05:39:16;99381.00;;;17.10
11424;BMP180;5768;51.476;7.210;2022-10-15T05:44:18;99372.00;;;17.00
11424;BMP180;5768;51.476;7.210;2022-10-15T05:49:25;99386.00;;;17.00
11424;BMP180;5768;51.476;7.210;2022-10-15T05:54:27;99396.00;;;17.00
11424;BMP180;5768;51.476;7.210;2022-10-15T05:59:29;99393.00;;;17.10
11424;BMP180;5768;51.476;7.210;2022-10-15T06:04:33;99398.00;;;17.20
11424;BMP180;5768;51.476;7.210;2022-10-15T06:09:36;99405.00;;;17.20
11424;BMP180;5768;51.476;7.210;2022-10-15T06:14:38;99411.00;;;17.30
11424;BMP180;5768;51.476;7.210;2022-10-15T06:19:42;99404.00;;;17.30
11424;BMP180;5768;51.476;7.210;2022-10-15T06:24:44;99412.00;;;17.40
11424;BMP180;5768;51.476;7.210;2022-10-15T06:29:46;99411.00;;;17.40
11424;BMP180;5768;51.476;7.210;2022-10-15T06:34:50;99412.00;;;17.40
11424;BMP180;5768;51.476;7.210;2022-10-15T06:39:52;99426.00;;;17.30
11424;BMP180;5768;51.476;7.210;2022-10-15T06:44:54;99428.00;;;17.30
11424;BMP180;5768;51.476;7.210;2022-10-15T06:49:58;99427.00;;;17.30
11424;BMP180;5768;51.476;7.210;2022-10-15T06:55:01;99437.00;;;17.30
11424;BMP180;5768;51.476;7.210;2022-10-15T07:00:04;99426.00;;;17.30
11424;BMP180;5768;51.476;7.210;2022-10-15T07:05:08;99432.00;;;17.30
11424;BMP180;5768;51.476;7.210;2022-10-15T07:10:10;99439.00;;;17.30
11424;BMP180;5768;51.476;7.210;2022-10-15T07:15:13;99438.00;;;17.50
11424;BMP180;5768;51.476;7.210;2022-10-15T07:20:17;99437.00;;;17.70
11424;BMP180;5768;51.476;7.210;2022-10-15T07:25:20;99431.00;;;17.90
11424;BMP180;5768;51.476;7.210;2022-10-15T07:30:24;99430.00;;;18.00
11424;BMP180;5768;51.476;7.210;2022-10-15T07:35:29;99441.00;;;18.00
11424;BMP180;5768;51.476;7.210;2022-10-15T07:40:31;99443.00;;;18.10
11424;BMP180;5768;51.476;7.210;2022-10-15T07:45:34;99453.00;;;18.40
11424;BMP180;5768;51.476;7.210;2022-10-15T07:50:38;99447.00;;;18.60
11424;BMP180;5768;51.476;7.210;2022-10-15T07:55:40;99446.00;;;18.70
11424;BMP180;5768;51.476;7.210;2022-10-15T08:00:43;99450.00;;;18.60
11424;BMP180;5768;51.476;7.210;2022-10-15T08:05:46;99448.00;;;18.70
11424;BMP180;5768;51.476;7.210;2022-10-15T08:10:52;99452.00;;;18.90
11424;BMP180;5768;51.476;7.210;2022-10-15T08:15:56;99432.00;;;19.10
11424;BMP180;5768;51.476;7.210;2022-10-15T08:21:00;99433.00;;;19.20
11424;BMP180;5768;51.476;7.210;2022-10-15T08:26:03;99429.00;;;19.20
11424;BMP180;5768;51.476;7.210;2022-10-15T08:31:05;99410.00;;;19.10
11424;BMP180;5768;51.476;7.210;2022-10-15T08:36:09;99422.00;;;19.40
11424;BMP180;5768;51.476;7.210;2022-10-15T08:41:25;99435.00;;;19.30
11424;BMP180;5768;51.476;7.210;2022-10-15T08:46:36;99437.00;;;19.70
11424;BMP180;5768;51.476;7.210;2022-10-15T08:51:50;99423.00;;;19.90
11424;BMP180;5768;51.476;7.210;2022-10-15T08:57:14;99421.00;;;19.70
11424;BMP180;5768;51.476;7.210;2022-10-15T09:02:24;99425.00;;;19.80
11424;BMP180;5768;51.476;7.210;2022-10-15T09:07:38;99421.00;;;20.00
11424;BMP180;5768;51.476;7.210;2022-10-15T09:12:54;99418.00;;;20.10
11424;BMP180;5768;51.476;7.210;2022-10-15T09:17:59;99408.00;;;20.00
11424;BMP180;5768;51.476;7.210;2022-10-15T09:23:07;99417.00;;;20.10
11424;BMP180;5768;51.476;7.210;2022-10-15T09:28:19;99410.00;;;20.80
11424;BMP180;5768;51.476;7.210;2022-10-15T09:33:36;99412.00;;;20.80
11424;BMP180;5768;51.476;7.210;2022-10-15T09:38:52;99390.00;;;20.90
11424;BMP180;5768;51.476;7.210;2022-10-15T09:43:58;99385.00;;;21.10
11424;BMP180;5768;51.476;7.210;2022-10-15T09:49:08;99389.00;;;21.30
11424;BMP180;5768;51.476;7.210;2022-10-15T09:54:29;99388.00;;;21.40
11424;BMP180;5768;51.476;7.210;2022-10-15T09:59:33;99386.00;;;21.70
11424;BMP180;5768;51.476;7.210;2022-10-15T10:04:35;99386.00;;;21.90
11424;BMP180;5768;51.476;7.210;2022-10-15T10:09:52;99385.00;;;22.10
11424;BMP180;5768;51.476;7.210;2022-10-15T10:14:57;99385.00;;;22.30
11424;BMP180;5768;51.476;7.210;2022-10-15T10:20:15;99378.00;;;22.40
11424;BMP180;5768;51.476;7.210;2022-10-15T10:25:36;99376.00;;;22.60
11424;BMP180;5768;51.476;7.210;2022-10-15T10:30:57;99367.00;;;22.70
11424;BMP180;5768;51.476;7.210;2022-10-15T10:36:05;99360.00;;;22.80
11424;BMP180;5768;51.476;7.210;2022-10-15T10:41:10;99361.00;;;23.00
11424;BMP180;5768;51.476;7.210;2022-10-15T10:46:18;99348.00;;;22.90
11424;BMP180;5768;51.476;7.210;2022-10-15T10:51:24;99353.00;;;23.20
11424;BMP180;5768;51.476;7.210;2022-10-15T10:56:35;99341.00;;;23.40
11424;BMP180;5768;51.476;7.210;2022-10-15T11:01:38;99341.00;;;23.20
11424;BMP180;5768;51.476;7.210;2022-10-15T11:06:56;99351.00;;;22.90
11424;BMP180;5768;51.476;7.210;2022-10-15T11:12:18;99344.00;;;22.70
11424;BMP180;5768;51.476;7.210;2022-10-15T11:17:41;99336.00;;;22.70
11424;BMP180;5768;51.476;7.210;2022-10-15T11:23:02;99345.00;;;22.60
11424;BMP180;5768;51.476;7.210;2022-10-15T11:28:28;99338.00;;;22.50
11424;BMP180;5768;51.476;7.210;2022-10-15T11:34:02;99330.00;;;22.40
11424;BMP180;5768;51.476;7.210;2022-10-15T11:39:28;99322.00;;;23.00
11424;BMP180;5768;51.476;7.210;2022-10-15T11:44:52;99321.00;;;23.10
11424;BMP180;5768;51.476;7.210;2022-10-15T11:50:12;99310.00;;;22.90
11424;BMP180;5768;51.476;7.210;2022-10-15T11:55:20;99294.00;;;23.00
11424;BMP180;5768;51.476;7.210;2022-10-15T12:00:32;99304.00;;;23.30
11424;BMP180;5768;51.476;7.210;2022-10-15T12:05:42;99315.00;;;23.30
11424;BMP180;5768;51.476;7.210;2022-10-15T12:11:06;99305.00;;;23.10
11424;BMP180;5768;51.476;7.210;2022-10-15T12:16:25;99297.00;;;23.10
11424;BMP180;5768;51.476;7.210;2022-10-15T12:21:39;99287.00;;;23.10
11424;BMP180;5768;51.476;7.210;2022-10-15T12:26:41;99293.00;;;22.90
11424;BMP180;5768;51.476;7.210;2022-10-15T12:31:48;99274.00;;;23.20
11424;BMP180;5768;51.476;7.210;2022-10-15T12:37:01;99280.00;;;24.00
11424;BMP180;5768;51.476;7.210;2022-10-15T12:42:04;99268.00;;;24.30
11424;BMP180;5768;51.476;7.210;2022-10-15T12:47:10;99283.00;;;24.20
11424;BMP180;5768;51.476;7.210;2022-10-15T12:53:25;99273.00;;;23.70
11424;BMP180;5768;51.476;7.210;2022-10-15T12:58:34;99264.00;;;23.20
11424;BMP180;5768;51.476;7.210;2022-10-15T13:03:51;99268.00;;;22.80
11424;BMP180;5768;51.476;7.210;2022-10-15T13:09:03;99261.00;;;22.90
11424;BMP180;5768;51.476;7.210;2022-10-15T13:14:25;99271.00;;;23.00
11424;BMP180;5768;51.476;7.210;2022-10-15T13:19:35;99262.00;;;23.60
11424;BMP180;5768;51.476;7.210;2022-10-15T13:24:41;99275.00;;;24.20
11424;BMP180;5768;51.476;7.210;2022-10-15T13:29:57;99271.00;;;23.80
11424;BMP180;5768;51.476;7.210;2022-10-15T13:35:09;99271.00;;;24.30
11424;BMP180;5768;51.476;7.210;2022-10-15T13:40:20;99273.00;;;24.20
11424;BMP180;5768;51.476;7.210;2022-10-15T13:45:23;99270.00;;;24.50
11424;BMP180;5768;51.476;7.210;2022-10-15T13:50:28;99261.00;;;24.50
11424;BMP180;5768;51.476;7.210;2022-10-15T13:55:34;99257.00;;;25.20
11424;BMP180;5768;51.476;7.210;2022-10-15T14:00:38;99251.00;;;25.00
11424;BMP180;5768;51.476;7.210;2022-10-15T14:05:42;99255.00;;;24.50
11424;BMP180;5768;51.476;7.210;2022-10-15T14:10:44;99263.00;;;24.20
11424;BMP180;5768;51.476;7.210;2022-10-15T14:16:00;99254.00;;;24.50
11424;BMP180;5768;51.476;7.210;2022-10-15T14:21:10;99262.00;;;24.10
11424;BMP180;5768;51.476;7.210;2022-10-15T14:26:14;99275.00;;;24.00
11424;BMP180;5768;51.476;7.210;2022-10-15T14:31:36;99264.00;;;23.90
11424;BMP180;5768;51.476;7.210;2022-10-15T14:36:42;99262.00;;;23.50
11424;BMP180;5768;51.476;7.210;2022-10-15T14:41:58;99265.00;;;23.80
11424;BMP180;5768;51.476;7.210;2022-10-15T14:47:02;99268.00;;;25.10
11424;BMP180;5768;51.476;7.210;2022-10-15T14:52:12;99272.00;;;25.60
11424;BMP180;5768;51.476;7.210;2022-10-15T14:57:22;99279.00;;;24.60
11424;BMP180;5768;51.476;7.210;2022-10-15T15:02:27;99262.00;;;23.70
11424;BMP180;5768;51.476;7.210;2022-10-15T15:07:31;99290.00;;;23.30
11424;BMP180;5768;51.476;7.210;2022-10-15T15:12:34;99308.00;;;22.70
11424;BMP180;5768;51.476;7.210;2022-10-15T15:17:38;99305.00;;;22.10
11424;BMP180;5768;51.476;7.210;2022-10-15T15:22:42;99304.00;;;21.80
11424;BMP180;5768;51.476;7.210;2022-10-15T15:27:44;99307.00;;;21.50
11424;BMP180;5768;51.476;7.210;2022-10-15T15:32:47;99317.00;;;21.30
11424;BMP180;5768;51.476;7.210;2022-10-15T15:37:51;99327.00;;;21.10
11424;BMP180;5768;51.476;7.210;2022-10-15T15:42:57;99324.00;;;21.10
11424;BMP180;5768;51.476;7.210;2022-10-15T15:47:59;99323.00;;;21.20
11424;BMP180;5768;51.476;7.210;2022-10-15T15:53:04;99331.00;;;21.10
11424;BMP180;5768;51.476;7.210;2022-10-15T15:58:06;99328.00;;;20.90
11424;BMP180;5768;51.476;7.210;2022-10-15T16:03:12;99341.00;;;20.90
11424;BMP180;5768;51.476;7.210;2022-10-15T16:08:16;99352.00;;;20.80
11424;BMP180;5768;51.476;7.210;2022-10-15T16:13:18;99347.00;;;20.60
11424;BMP180;5768;51.476;7.210;2022-10-15T16:18:20;99357.00;;;20.50
11424;BMP180;5768;51.476;7.210;2022-10-15T16:23:24;99369.00;;;20.40
11424;BMP180;5768;51.476;7.210;2022-10-15T16:28:26;99364.00;;;20.30
11424;BMP180;5768;51.476;7.210;2022-10-15T16:33:30;99365.00;;;20.10
11424;BMP180;5768;51.476;7.210;2022-10-15T16:38:33;99370.00;;;20.10
11424;BMP180;5768;51.476;7.210;2022-10-15T16:43:36;99381.00;;;20.10
11424;BMP180;5768;51.476;7.210;2022-10-15T16:48:38;99400.00;;;20.10
11424;BMP180;5768;51.476;7.210;2022-10-15T16:53:45;99423.00;;;20.10
11424;BMP180;5768;51.476;7.210;2022-10-15T16:58:48;99427.00;;;20.00
11424;BMP180;5768;51.476;7.210;2022-10-15T17:03:51;99438.00;;;19.80
11424;BMP180;5768;51.476;7.210;2022-10-15T17:08:57;99460.00;;;19.80
11424;BMP180;5768;51.476;7.210;2022-10-15T17:14:02;99461.00;;;19.80
11424;BMP180;5768;51.476;7.210;2022-10-15T17:19:05;99470.00;;;19.80
11424;BMP180;5768;51.476;7.210;2022-10-15T17:24:13;99484.00;;;19.80
11424;BMP180;5768;51.476;7.210;2022-10-15T17:29:18;99498.00;;;19.70
11424;BMP180;5768;51.476;7.210;2022-10-15T17:34:23;99510.00;;;19.80
11424;BMP180;5768;51.476;7.210;2022-10-15T17:39:28;99522.00;;;19.80
11424;BMP180;5768;51.476;7.210;2022-10-15T17:44:30;99547.00;;;19.80
11424;BMP180;5768;51.476;7.210;2022-10-15T17:49:33;99552.00;;;19.80
11424;BMP180;5768;51.476;7.210;2022-10-15T17:54:36;99573.00;;;19.80
11424;BMP180;5768;51.476;7.210;2022-10-15T17:59:38;99569.00;;;19.60
11424;BMP180;5768;51.476;7.210;2022-10-15T18:04:41;99572.00;;;19.40
11424;BMP180;5768;51.476;7.210;2022-10-15T18:09:45;99570.00;;;19.30
11424;BMP180;5768;51.476;7.210;2022-10-15T18:14:47;99579.00;;;19.20
11424;BMP180;5768;51.476;7.210;2022-10-15T18:19:49;99590.00;;;19.10
11424;BMP180;5768;51.476;7.210;2022-10-15T18:24:54;99592.00;;;19.10
11424;BMP180;5768;51.476;7.210;2022-10-15T18:29:56;99589.00;;;19.00
11424;BMP180;5768;51.476;7.210;2022-10-15T18:34:59;99586.00;;;18.90
11424;BMP180;5768;51.476;7.210;2022-10-15T18:40:03;99598.00;;;18.70
11424;BMP180;5768;51.476;7.210;2022-10-15T18:45:07;99599.00;;;18.50
11424;BMP180;5768;51.476;7.210;2022-10-15T18:50:09;99606.00;;;18.50
11424;BMP180;5768;51.476;7.210;2022-10-15T18:55:13;99610.00;;;18.40
11424;BMP180;5768;51.476;7.210;2022-10-15T19:00:15;99611.00;;;18.30
11424;BMP180;5768;51.476;7.210;2022-10-15T19:05:17;99602.00;;;18.30
11424;BMP180;5768;51.476;7.210;2022-10-15T19:10:21;99615.00;;;18.20
11424;BMP180;5768;51.476;7.210;2022-10-15T19:15:23;99605.00;;;18.20
11424;BMP180;5768;51.476;7.210;2022-10-15T19:20:26;99603.00;;;18.10
11424;BMP180;5768;51.476;7.210;2022-10-15T19:25:29;99612.00;;;18.10
11424;BMP180;5768;51.476;7.210;2022-10-15T19:30:31;99626.00;;;18.00
11424;BMP180;5768;51.476;7.210;2022-10-15T19:35:38;99631.00;;;18.00
11424;BMP180;5768;51.476;7.210;2022-10-15T19:40:41;99638.00;;;18.00
11424;BMP180;5768;51.476;7.210;2022-10-15T19:45:45;99634.00;;;18.00
11424;BMP180;5768;51.476;7.210;2022-10-15T19:50:48;99645.00;;;18.00
11424;BMP180;5768;51.476;7.210;2022-10-15T19:55:57;99645.00;;;18.00
11424;BMP180;5768;51.476;7.210;2022-10-15T20:01:00;99647.00;;;18.00
11424;BMP180;5768;51.476;7.210;2022-10-15T20:06:06;99642.00;;;17.90
11424;BMP180;5768;51.476;7.210;2022-10-15T20:11:09;99652.00;;;17.90
11424;BMP180;5768;51.476;7.210;2022-10-15T20:16:12;99649.00;;;17.90
11424;BMP180;5768;51.476;7.210;2022-10-15T20:21:15;99654.00;;;17.80
11424;BMP180;5768;51.476;7.210;2022-10-15T20:26:19;99651.00;;;17.80
11424;BMP180;5768;51.476;7.210;2022-10-15T20:31:21;99666.00;;;17.80
11424;BMP180;5768;51.476;7.210;2022-10-15T20:36:28;99679.00;;;17.70
11424;BMP180;5768;51.476;7.210;2022-10-15T20:41:32;99679.00;;;17.70
11424;BMP180;5768;51.476;7.210;2022-10-15T20:46:38;99678.00;;;17.70
11424;BMP180;5768;51.476;7.210;2022-10-15T20:51:43;99680.00;;;17.70
11424;BMP180;5768;51.476;7.210;2022-10-15T20:56:47;99697.00;;;17.70
11424;BMP180;5768;51.476;7.210;2022-10-15T21:01:50;99708.00;;;17.70
11424;BMP180;5768;51.476;7.210;2022-10-15T21:06:52;99717.00;;;17.70
11424;BMP180;5768;51.476;7.210;2022-10-15T21:11:55;99711.00;;;17.70
11424;BMP180;5768;51.476;7.210;2022-10-15T21:16:57;99725.00;;;17.70
11424;BMP180;5768;51.476;7.210;2022-10-15T21:21:59;99731.00;;;17.60
11424;BMP180;5768;51.476;7.210;2022-10-15T21:27:03;99726.00;;;17.60
11424;BMP180;5768;51.476;7.210;2022-10-15T21:32:06;99744.00;;;17.60
11424;BMP180;5768;51.476;7.210;2022-10-15T21:37:08;99747.00;;;17.60
11424;BMP180;5768;51.476;7.210;2022-10-15T21:42:11;99750.00;;;17.60
11424;BMP180;5768;51.476;7.210;2022-10-15T21:47:13;99755.00;;;17.60
11424;BMP180;5768;51.476;7.210;2022-10-15T21:52:15;99761.00;;;17.60
11424;BMP180;5768;51.476;7.210;2022-10-15T21:57:19;99761.00;;;17.50
11424;BMP180;5768;51.476;7.210;2022-10-15T22:02:21;99770.00;;;17.50
11424;BMP180;5768;51.476;7.210;2022-10-15T22:07:23;99766.00;;;17.50
11424;BMP180;5768;51.476;7.210;2022-10-15T22:12:26;99769.00;;;17.40
11424;BMP180;5768;51.476;7.210;2022-10-15T22:17:28;99759.00;;;17.40
11424;BMP180;5768;51.476;7.210;2022-10-15T22:22:30;99759.00;;;17.40
11424;BMP180;5768;51.476;7.210;2022-10-15T22:27:34;99768.00;;;17.40
11424;BMP180;5768;51.476;7.210;2022-10-15T22:32:36;99772.00;;;17.40
11424;BMP180;5768;51.476;7.210;2022-10-15T22:37:38;99763.00;;;17.40
11424;BMP180;5768;51.476;7.210;2022-10-15T22:42:41;99762.00;;;17.40
11424;BMP180;5768;51.476;7.210;2022-10-15T22:47:46;99739.00;;;17.30
11424;BMP180;5768;51.476;7.210;2022-10-15T22:52:48;99762.00;;;17.30
11424;BMP180;5768;51.476;7.210;2022-10-15T22:57:51;99761.00;;;17.20
11424;BMP180;5768;51.476;7.210;2022-10-15T23:02:53;99761.00;;;17.20
11424;BMP180;5768;51.476;7.210;2022-10-15T23:07:55;99772.00;;;17.20
11424;BMP180;5768;51.476;7.210;2022-10-15T23:12:59;99776.00;;;17.20
11424;BMP180;5768;51.476;7.210;2022-10-15T23:18:01;99768.00;;;17.10
11424;BMP180;5768;51.476;7.210;2022-10-15T23:23:04;99774.00;;;17.10
11424;BMP180;5768;51.476;7.210;2022-10-15T23:28:09;99785.00;;;17.10
11424;BMP180;5768;51.476;7.210;2022-10-15T23:33:11;99781.00;;;17.00
11424;BMP180;5768;51.476;7.210;2022-10-15T23:38:13;99776.00;;;17.00
11424;BMP180;5768;51.476;7.210;2022-10-15T23:43:16;99788.00;;;17.00
11424;BMP180;5768;51.476;7.210;2022-10-15T23:48:19;99792.00;;;17.00
11424;BMP180;5768;51.476;7.210;2022-10-15T23:53:21;99785.00;;;17.00
11424;BMP180;5768;51.476;7.210;2022-10-15T23:58:25;99785.00;;;17.00
